Time;durP1;ratioP1;P1;durP2;ratioP2;P2;SDS_P1;SDS_P2;PMS_P1;PMS_P2;Temp;Humidity;BMP_temperature;BMP_pressure;BME280_temperature;BME280_humidity;BME280_pressure;Samples;Min_cycle;Max_cycle;Signal;HPM_P1;HPM_P2
2022/01/30 00:01:34;;;;;;;10.48;2.85;;;6.60;99.90;;;;;;5042169;28;20060;-65
2022/01/30 00:03:59;;;;;;;13.60;3.92;;;6.70;99.90;;;;;;5034711;28;20065;-65
2022/01/30 00:06:25;;;;;;;16.48;3.08;;;6.70;99.90;;;;;;5054609;28;20057;-64
2022/01/30 00:08:50;;;;;;;18.50;3.05;;;6.80;99.90;;;;;;5053456;28;20049;-63
2022/01/30 00:11:23;;;;;;;19.15;3.97;;;6.90;99.90;;;;;;5054636;28;20053;-64
2022/01/30 00:13:49;;;;;;;;;;;6.80;99.90;;;;;;5056027;28;20053;-65
2022/01/30 00:16:17;;;;;;;20.45;3.50;;;6.80;99.90;;;;;;5049443;28;19944;-65
2022/01/30 00:18:58;;;;;;;20.33;3.95;;;6.80;99.90;;;;;;5049369;28;20053;-64
2022/01/30 00:24:07;;;;;;;11.63;2.67;;;6.70;99.90;;;;;;5034682;28;20446;-64
2022/01/30 00:26:36;;;;;;;18.08;3.15;;;6.70;99.90;;;;;;5034772;28;20050;-63
2022/01/30 00:29:02;;;;;;;13.73;2.63;;;6.70;99.90;;;;;;5051462;28;20041;-65
2022/01/30 00:31:28;;;;;;;19.40;3.83;;;6.70;99.90;;;;;;5038498;28;20065;-64
2022/01/30 00:33:54;;;;;;;18.17;3.85;;;6.60;99.90;;;;;;5041659;28;20049;-64
2022/01/30 00:36:20;;;;;;;11.63;2.83;;;6.60;99.90;;;;;;5044298;28;20085;-64
2022/01/30 00:38:45;;;;;;;12.60;3.05;;;6.70;99.90;;;;;;5034722;28;20088;-63
2022/01/30 00:41:12;;;;;;;13.75;2.97;;;6.60;99.90;;;;;;5035062;28;20485;-64
2022/01/30 00:43:37;;;;;;;14.32;3.22;;;6.60;99.90;;;;;;5033228;28;20049;-65
2022/01/30 00:46:03;;;;;;;11.98;3.08;;;6.50;99.90;;;;;;5054138;28;20123;-64
2022/01/30 00:48:28;;;;;;;21.15;4.30;;;6.50;99.90;;;;;;5039153;28;20464;-67
2022/01/30 00:50:54;;;;;;;15.75;2.97;;;6.40;99.90;;;;;;5015448;28;20057;-64
2022/01/30 00:53:20;;;;;;;17.10;3.97;;;6.40;99.90;;;;;;5016584;28;20061;-65
2022/01/30 00:55:46;;;;;;;12.80;2.63;;;6.40;99.90;;;;;;5034905;28;20042;-66
2022/01/30 00:58:12;;;;;;;13.25;2.78;;;6.50;99.90;;;;;;5045360;28;20148;-66
2022/01/30 01:00:38;;;;;;;17.73;3.13;;;6.50;99.90;;;;;;5051871;28;20485;-65
2022/01/30 01:03:04;;;;;;;12.63;2.72;;;6.50;99.90;;;;;;5054692;28;20064;-66
2022/01/30 01:05:31;;;;;;;12.85;2.78;;;6.40;99.90;;;;;;5052689;28;20057;-65
2022/01/30 01:08:01;;;;;;;19.42;3.90;;;6.30;99.90;;;;;;5034536;28;20054;-63
2022/01/30 01:10:45;;;;;;;10.10;2.83;;;6.10;99.90;;;;;;5033207;28;20474;-65
2022/01/30 01:23:51;;;;;;;16.70;3.23;;;5.30;99.90;;;;;;5033778;28;20052;-65
2022/01/30 01:26:18;;;;;;;18.52;3.85;;;5.20;99.90;;;;;;5026204;28;20049;-64
2022/01/30 01:28:44;;;;;;;13.45;4.05;;;5.20;99.90;;;;;;5050779;28;20112;-64
2022/01/30 01:31:10;;;;;;;21.48;4.53;;;5.20;99.90;;;;;;5034411;28;20201;-64
2022/01/30 01:36:05;;;;;;;23.38;3.83;;;5.20;99.90;;;;;;5052541;28;20053;-64
2022/01/30 01:38:30;;;;;;;25.23;4.38;;;5.20;99.90;;;;;;5042975;28;20391;-65
2022/01/30 01:40:56;;;;;;;13.68;3.22;;;5.10;99.90;;;;;;5031800;28;20067;-64
2022/01/30 01:43:24;;;;;;;19.17;4.20;;;5.20;99.90;;;;;;5032510;28;20087;-65
2022/01/30 01:45:52;;;;;;;16.42;4.07;;;5.20;99.90;;;;;;5048910;28;20434;-65
2022/01/30 01:48:17;;;;;;;18.58;3.30;;;5.20;99.90;;;;;;5041432;28;20371;-64
2022/01/30 01:50:51;;;;;;;16.63;3.53;;;5.20;99.90;;;;;;5013504;28;20056;-65
2022/01/30 01:53:19;;;;;;;18.45;3.75;;;5.30;99.90;;;;;;5028160;28;20052;-65
2022/01/30 01:55:44;;;;;;;17.92;2.97;;;5.20;99.90;;;;;;5033854;28;20049;-64
2022/01/30 01:58:10;;;;;;;21.63;3.58;;;5.30;99.90;;;;;;5047543;28;20053;-65
2022/01/30 02:00:36;;;;;;;20.40;4.20;;;5.10;99.90;;;;;;5051119;28;20052;-64
2022/01/30 02:03:03;;;;;;;20.23;4.40;;;5.20;99.90;;;;;;5052016;28;20389;-65
2022/01/30 02:05:31;;;;;;;8.65;2.28;;;5.30;99.90;;;;;;5050968;28;20065;-66
2022/01/30 02:08:24;;;;;;;12.23;3.10;;;5.30;99.90;;;;;;5032437;28;20045;-64
2022/01/30 02:10:58;;;;;;;13.88;2.95;;;5.50;99.90;;;;;;5031063;28;20053;-65
2022/01/30 02:13:56;;;;;;;13.85;2.67;;;5.50;99.90;;;;;;5033828;28;20149;-64
2022/01/30 02:24:39;;;;;;;14.95;3.55;;;5.50;99.90;;;;;;5041736;28;20049;-65
2022/01/30 02:27:05;;;;;;;23.70;4.78;;;5.30;99.90;;;;;;5042150;28;20080;-65
2022/01/30 02:29:31;;;;;;;21.83;4.22;;;5.40;99.90;;;;;;5040612;28;20053;-66
2022/01/30 02:31:59;;;;;;;16.05;3.83;;;5.40;99.90;;;;;;5051689;28;20091;-64
2022/01/30 02:34:29;;;;;;;15.20;3.20;;;5.40;99.90;;;;;;5051392;28;20052;-66
2022/01/30 02:36:56;;;;;;;25.60;5.57;;;5.50;99.90;;;;;;5053618;28;20053;-66
2022/01/30 02:39:22;;;;;;;22.65;4.80;;;5.50;99.90;;;;;;5036148;28;20053;-66
2022/01/30 02:41:49;;;;;;;26.45;5.07;;;5.50;99.90;;;;;;5031495;28;20045;-64
2022/01/30 02:46:50;;;;;;;20.88;3.75;;;5.70;99.90;;;;;;5031477;28;20516;-64
2022/01/30 02:51:49;;;;;;;19.25;4.28;;;5.80;99.90;;;;;;5040613;28;20049;-65
2022/01/30 02:54:15;;;;;;;24.17;4.18;;;5.80;99.90;;;;;;5031906;28;20045;-65
2022/01/30 02:56:42;;;;;;;9.70;3.08;;;5.90;99.90;;;;;;5033270;28;20041;-66
2022/01/30 02:59:07;;;;;;;20.70;4.47;;;6.00;99.90;;;;;;5021618;28;20393;-67
2022/01/30 03:01:33;;;;;;;21.92;4.88;;;6.00;99.90;;;;;;5041325;28;20053;-64
2022/01/30 03:03:59;;;;;;;20.80;4.70;;;6.00;99.90;;;;;;5032497;28;20052;-64
2022/01/30 03:06:25;;;;;;;15.88;4.72;;;6.00;99.90;;;;;;5036396;28;20072;-65
2022/01/30 03:08:51;;;;;;;26.42;5.32;;;6.00;99.90;;;;;;5052586;28;20142;-66
2022/01/30 03:11:17;;;;;;;21.00;4.03;;;5.90;99.90;;;;;;5046888;28;20457;-66
2022/01/30 03:13:42;;;;;;;20.50;3.95;;;5.90;99.90;;;;;;5049472;28;20118;-65
2022/01/30 03:16:08;;;;;;;16.90;3.30;;;5.90;99.90;;;;;;5050567;28;20057;-65
2022/01/30 03:18:33;;;;;;;17.45;4.38;;;5.90;99.90;;;;;;5050504;28;20053;-65
2022/01/30 03:20:59;;;;;;;17.75;4.05;;;6.00;99.90;;;;;;5047398;28;20097;-65
2022/01/30 03:23:25;;;;;;;16.67;3.40;;;5.90;99.90;;;;;;5020041;28;20458;-64
2022/01/30 03:25:56;;;;;;;22.33;4.40;;;5.90;99.90;;;;;;5013754;28;20426;-67
2022/01/30 03:28:22;;;;;;;17.67;2.70;;;6.00;99.90;;;;;;5031448;28;20539;-65
2022/01/30 03:30:52;;;;;;;16.48;3.67;;;6.00;99.90;;;;;;5035655;28;20056;-66
2022/01/30 03:33:18;;;;;;;21.48;4.22;;;6.00;99.90;;;;;;5052074;28;20409;-65
2022/01/30 03:35:44;;;;;;;16.10;2.80;;;6.00;99.90;;;;;;5050460;28;20048;-65
2022/01/30 03:38:09;;;;;;;18.23;3.47;;;5.90;99.90;;;;;;5051435;28;20139;-65
2022/01/30 03:40:35;;;;;;;23.60;4.78;;;5.90;99.90;;;;;;5035796;28;20072;-65
2022/01/30 03:43:00;;;;;;;16.98;3.97;;;5.80;99.90;;;;;;5028848;28;20049;-65
2022/01/30 03:45:26;;;;;;;18.15;3.80;;;5.80;99.90;;;;;;5049212;28;20390;-64
2022/01/30 03:47:55;;;;;;;19.15;3.75;;;5.70;99.90;;;;;;5035212;28;20056;-65
2022/01/30 03:50:21;;;;;;;25.73;5.55;;;5.70;99.90;;;;;;5051723;28;20391;-64
2022/01/30 03:52:47;;;;;;;20.88;3.97;;;5.80;99.90;;;;;;5043787;28;20148;-65
2022/01/30 03:55:13;;;;;;;20.15;3.47;;;5.70;99.90;;;;;;5039577;28;20183;-65
2022/01/30 03:57:38;;;;;;;23.80;4.40;;;5.80;99.90;;;;;;5034268;28;20080;-65
2022/01/30 04:00:06;;;;;;;27.23;5.75;;;5.90;99.90;;;;;;5052396;28;20049;-65
2022/01/30 04:02:31;;;;;;;22.50;4.00;;;5.80;99.90;;;;;;5040428;28;20096;-64
2022/01/30 04:04:57;;;;;;;20.23;4.45;;;5.90;99.90;;;;;;5034221;28;20452;-64
2022/01/30 04:07:23;;;;;;;28.38;4.75;;;5.80;99.90;;;;;;5035899;28;20041;-65
2022/01/30 04:09:49;;;;;;;25.35;4.53;;;5.80;99.90;;;;;;5037260;28;20053;-66
2022/01/30 04:12:15;;;;;;;17.75;4.40;;;5.80;99.90;;;;;;5043680;28;20110;-65
2022/01/30 04:14:42;;;;;;;33.22;5.40;;;5.90;99.90;;;;;;5041609;28;20053;-66
2022/01/30 04:17:09;;;;;;;28.73;5.75;;;5.90;99.90;;;;;;5050886;28;20064;-66
2022/01/30 04:19:35;;;;;;;31.48;6.30;;;5.90;99.90;;;;;;5035601;28;20398;-66
2022/01/30 04:22:01;;;;;;;23.58;5.47;;;5.90;99.90;;;;;;5038686;28;20103;-65
2022/01/30 04:24:26;;;;;;;32.53;5.88;;;5.90;99.90;;;;;;5046007;28;20432;-65
2022/01/30 04:26:52;;;;;;;28.70;4.82;;;5.80;99.90;;;;;;5034054;28;20408;-64
2022/01/30 04:29:18;;;;;;;27.88;6.30;;;5.90;99.90;;;;;;5036701;28;20072;-64
2022/01/30 04:31:43;;;;;;;29.30;6.05;;;5.90;99.90;;;;;;5042712;28;20076;-65
2022/01/30 04:34:10;;;;;;;27.95;5.68;;;5.90;99.90;;;;;;5018022;28;20075;-66
2022/01/30 04:36:42;;;;;;;17.90;4.03;;;5.90;99.90;;;;;;5054373;28;20081;-68
2022/01/30 04:39:29;;;;;;;31.17;5.63;;;5.90;99.90;;;;;;5034569;28;20050;-65
2022/01/30 04:42:31;;;;;;;25.30;5.00;;;5.90;99.90;;;;;;5020781;28;20396;-65
2022/01/30 04:53:24;;;;;;;27.88;4.75;;;5.70;99.90;;;;;;5034046;28;20053;-66
2022/01/30 04:58:31;;;;;;;31.45;6.93;;;5.30;99.90;;;;;;5015547;28;20089;-65
2022/01/30 05:03:51;;;;;;;26.02;4.95;;;5.20;99.90;;;;;;5035002;28;20418;-66
2022/01/30 05:06:29;;;;;;;28.85;5.28;;;5.10;99.90;;;;;;5033324;28;20061;-65
2022/01/30 05:08:55;;;;;;;33.45;6.75;;;5.20;99.90;;;;;;5039641;28;20103;-64
2022/01/30 05:11:20;;;;;;;30.83;5.07;;;5.20;99.90;;;;;;5054024;28;20049;-65
2022/01/30 05:13:48;;;;;;;23.73;4.75;;;5.20;99.90;;;;;;5053737;28;20412;-66
2022/01/30 05:16:14;;;;;;;26.02;5.68;;;5.20;99.90;;;;;;5052730;28;20064;-64
2022/01/30 05:18:39;;;;;;;35.75;7.57;;;5.20;99.90;;;;;;5051712;28;20416;-66
2022/01/30 05:21:05;;;;;;;36.60;7.40;;;5.20;99.90;;;;;;5042977;28;20057;-64
2022/01/30 05:23:31;;;;;;;35.20;6.68;;;5.20;99.90;;;;;;5034362;28;20057;-66
2022/01/30 05:25:57;;;;;;;32.75;6.15;;;5.20;99.90;;;;;;5052084;28;20049;-64
2022/01/30 05:28:24;;;;;;;36.10;6.50;;;5.10;99.90;;;;;;5040446;28;20453;-65
2022/01/30 05:30:50;;;;;;;30.70;6.28;;;5.10;99.90;;;;;;5049460;28;20050;-65
2022/01/30 05:33:16;;;;;;;28.45;6.35;;;5.10;99.90;;;;;;5052475;28;20123;-66
2022/01/30 05:35:42;;;;;;;32.47;7.25;;;5.10;99.90;;;;;;5019751;28;20153;-66
2022/01/30 05:38:08;;;;;;;32.47;6.68;;;5.10;99.90;;;;;;5033454;28;20128;-66
2022/01/30 05:40:37;;;;;;;31.45;6.70;;;5.10;99.90;;;;;;5051703;28;20056;-65
2022/01/30 05:43:04;;;;;;;36.15;7.00;;;5.10;99.90;;;;;;5024842;28;20057;-66
2022/01/30 05:45:38;;;;;;;37.35;7.93;;;5.10;99.90;;;;;;5015852;28;20053;-65
2022/01/30 05:48:25;;;;;;;26.75;5.88;;;5.10;99.90;;;;;;5041621;28;20076;-66
2022/01/30 05:50:50;;;;;;;37.15;6.95;;;5.10;99.90;;;;;;5037197;28;20057;-66
2022/01/30 05:53:15;;;;;;;31.92;6.88;;;5.00;99.90;;;;;;5052665;28;20140;-64
2022/01/30 05:55:41;;;;;;;35.45;6.57;;;5.00;99.90;;;;;;5049781;28;20049;-65
2022/01/30 05:58:08;;;;;;;27.10;5.55;;;5.00;99.90;;;;;;5053045;28;20056;-65
2022/01/30 06:00:34;;;;;;;29.67;6.32;;;5.00;99.90;;;;;;5048454;28;20111;-65
2022/01/30 06:03:00;;;;;;;33.72;7.13;;;5.00;99.90;;;;;;5039926;28;20057;-66
2022/01/30 06:05:26;;;;;;;28.40;5.47;;;5.00;99.90;;;;;;5036098;28;20057;-64
2022/01/30 06:07:56;;;;;;;41.33;8.18;;;5.10;99.90;;;;;;5036048;28;20152;-64
2022/01/30 06:10:24;;;;;;;30.10;6.55;;;5.00;99.90;;;;;;5034140;28;20045;-66
2022/01/30 06:12:50;;;;;;;33.90;7.03;;;5.10;99.90;;;;;;5027152;28;20128;-66
2022/01/30 06:15:16;;;;;;;27.98;6.60;;;5.00;99.90;;;;;;5014504;28;20058;-65
2022/01/30 06:17:43;;;;;;;36.63;8.65;;;5.10;99.90;;;;;;5047480;28;20128;-64
2022/01/30 06:20:10;;;;;;;36.88;6.32;;;5.00;99.90;;;;;;5034422;28;20085;-64
2022/01/30 06:22:36;;;;;;;36.85;6.32;;;5.10;99.90;;;;;;5051518;28;20534;-65
2022/01/30 06:25:03;;;;;;;25.13;5.78;;;5.20;99.90;;;;;;5052047;28;20045;-65
2022/01/30 06:27:28;;;;;;;28.58;6.50;;;5.20;99.90;;;;;;5049801;28;20064;-65
2022/01/30 06:29:54;;;;;;;34.38;6.57;;;5.10;99.90;;;;;;5052235;28;20463;-65
2022/01/30 06:32:20;;;;;;;25.73;6.10;;;5.10;99.90;;;;;;5038684;28;20053;-66
2022/01/30 06:34:45;;;;;;;27.75;5.95;;;5.20;99.90;;;;;;5031559;28;20072;-64
2022/01/30 06:37:11;;;;;;;31.83;6.28;;;5.10;99.90;;;;;;5044928;28;20118;-64
2022/01/30 06:39:36;;;;;;;41.05;7.30;;;5.10;99.90;;;;;;5052139;28;20048;-65
2022/01/30 06:42:02;;;;;;;31.80;7.38;;;5.10;99.90;;;;;;5049377;28;20045;-63
2022/01/30 06:44:28;;;;;;;29.05;5.68;;;5.20;99.90;;;;;;5039037;28;20111;-64
2022/01/30 06:46:53;;;;;;;30.20;6.35;;;5.30;99.90;;;;;;5031614;28;20132;-65
2022/01/30 06:49:19;;;;;;;30.05;5.47;;;5.40;99.90;;;;;;5031716;28;20085;-64
2022/01/30 06:51:44;;;;;;;31.95;5.38;;;5.50;99.90;;;;;;5046699;28;20099;-65
2022/01/30 06:54:10;;;;;;;25.48;6.03;;;5.50;99.90;;;;;;5046779;28;20053;-64
2022/01/30 06:56:35;;;;;;;29.35;6.18;;;5.50;99.90;;;;;;5022983;28;20057;-66
2022/01/30 06:59:02;;;;;;;26.83;6.47;;;5.50;99.90;;;;;;5032682;28;20132;-64
2022/01/30 07:01:27;;;;;;;22.52;4.55;;;5.50;99.90;;;;;;5016007;28;20461;-65
2022/01/30 07:03:54;;;;;;;31.70;6.30;;;5.50;99.90;;;;;;5025007;28;20041;-64
2022/01/30 07:06:20;;;;;;;38.80;6.28;;;5.60;99.90;;;;;;5011893;28;20488;-64
2022/01/30 07:08:46;;;;;;;28.77;5.93;;;5.70;99.90;;;;;;5027049;28;20120;-65
2022/01/30 07:11:15;;;;;;;31.45;6.53;;;5.60;99.90;;;;;;5022630;28;20163;-66
2022/01/30 07:13:40;;;;;;;33.20;6.05;;;5.60;99.90;;;;;;5015767;28;20042;-66
2022/01/30 07:16:06;;;;;;;30.35;5.63;;;5.60;99.90;;;;;;5029966;28;20055;-65
2022/01/30 07:18:32;;;;;;;36.58;6.03;;;5.70;99.90;;;;;;5045969;28;20060;-65
2022/01/30 07:20:57;;;;;;;28.98;5.95;;;5.60;99.90;;;;;;5037912;28;20103;-64
2022/01/30 07:23:23;;;;;;;35.63;6.97;;;5.70;99.90;;;;;;5030751;28;20045;-64
2022/01/30 07:25:48;;;;;;;32.78;6.85;;;5.70;99.90;;;;;;5030586;28;20053;-64
2022/01/30 07:28:14;;;;;;;28.00;6.40;;;5.70;99.90;;;;;;5031303;28;20076;-66
2022/01/30 07:30:39;;;;;;;34.58;6.85;;;5.70;99.90;;;;;;5030093;28;20038;-65
2022/01/30 07:33:05;;;;;;;27.95;5.85;;;5.70;99.90;;;;;;5030948;28;20551;-65
2022/01/30 07:35:32;;;;;;;25.85;6.45;;;5.80;99.90;;;;;;5031703;28;20064;-64
2022/01/30 07:38:05;;;;;;;29.65;7.30;;;5.70;99.90;;;;;;5031225;28;20046;-66
2022/01/30 07:40:34;;;;;;;31.55;7.28;;;5.70;99.90;;;;;;5187834;22;20146;-65
2022/01/30 07:43:00;;;;;;;26.08;6.05;;;5.80;99.90;;;;;;5052047;28;20080;-64
2022/01/30 07:45:26;;;;;;;33.90;6.25;;;5.80;99.90;;;;;;5033804;28;20161;-64
2022/01/30 07:47:51;;;;;;;33.75;6.20;;;5.90;99.90;;;;;;5034025;28;20511;-65
2022/01/30 07:50:17;;;;;;;32.03;6.40;;;5.80;99.90;;;;;;5034408;28;20049;-66
2022/01/30 07:52:43;;;;;;;31.42;6.15;;;5.80;99.90;;;;;;5034080;28;20063;-65
2022/01/30 07:55:09;;;;;;;33.03;6.18;;;5.90;99.90;;;;;;5052634;28;20048;-65
2022/01/30 07:57:35;;;;;;;31.20;6.32;;;5.90;99.90;;;;;;5033938;28;20115;-64
2022/01/30 08:00:01;;;;;;;39.78;9.05;;;5.90;99.90;;;;;;5033472;28;20081;-66
2022/01/30 08:02:26;;;;;;;36.53;6.65;;;5.90;99.90;;;;;;5051456;28;20413;-64
2022/01/30 08:04:54;;;;;;;40.05;8.07;;;5.90;99.90;;;;;;5033996;28;20053;-65
2022/01/30 08:07:21;;;;;;;43.25;8.57;;;5.90;99.90;;;;;;5034649;28;20112;-64
2022/01/30 08:09:46;;;;;;;26.48;6.80;;;5.90;99.90;;;;;;5052848;28;20053;-64
2022/01/30 08:12:12;;;;;;;36.80;7.20;;;5.90;99.90;;;;;;5034022;28;20044;-65
2022/01/30 08:14:37;;;;;;;34.03;6.93;;;5.90;99.90;;;;;;5051346;22;20052;-66
2022/01/30 08:17:03;;;;;;;37.92;7.25;;;5.90;99.90;;;;;;5039563;28;20476;-64
2022/01/30 08:19:29;;;;;;;41.45;7.50;;;5.90;99.90;;;;;;5042841;28;20401;-64
2022/01/30 08:21:56;;;;;;;29.67;5.93;;;5.90;99.90;;;;;;5036516;28;20056;-64
2022/01/30 08:24:24;;;;;;;32.72;6.60;;;5.80;99.90;;;;;;5034421;28;20045;-64
2022/01/30 08:26:50;;;;;;;38.10;7.25;;;5.90;99.90;;;;;;5056454;28;20049;-64
2022/01/30 08:29:18;;;;;;;24.98;5.65;;;5.90;99.90;;;;;;5056992;28;20057;-64
2022/01/30 08:31:44;;;;;;;35.42;5.88;;;5.80;99.90;;;;;;5038822;28;20424;-64
2022/01/30 08:34:09;;;;;;;37.83;6.35;;;5.80;99.90;;;;;;5038252;28;20049;-64
2022/01/30 08:36:35;;;;;;;35.10;6.75;;;5.80;99.90;;;;;;5039017;28;20061;-63
2022/01/30 08:39:01;;;;;;;39.33;7.25;;;5.90;99.90;;;;;;5038517;28;20049;-65
2022/01/30 08:41:26;;;;;;;26.58;6.50;;;5.90;99.90;;;;;;5037744;28;20452;-65
2022/01/30 08:43:52;;;;;;;27.05;5.65;;;6.00;99.90;;;;;;5042656;28;20072;-65
2022/01/30 08:46:17;;;;;;;28.25;5.47;;;6.00;99.90;;;;;;5048023;28;20458;-64
2022/01/30 08:48:43;;;;;;;28.65;5.40;;;6.00;99.90;;;;;;5052717;28;20049;-64
2022/01/30 08:51:09;;;;;;;23.40;4.25;;;6.00;99.90;;;;;;5049027;28;20132;-64
2022/01/30 08:53:35;;;;;;;30.30;5.85;;;6.10;99.90;;;;;;5038230;28;20056;-64
2022/01/30 08:56:00;;;;;;;28.70;5.93;;;6.10;99.90;;;;;;5036846;28;20136;-65
2022/01/30 08:58:26;;;;;;;37.25;6.80;;;6.10;99.90;;;;;;5037626;28;20401;-65
2022/01/30 09:00:51;;;;;;;29.05;5.90;;;6.10;99.90;;;;;;5037197;28;20182;-66
2022/01/30 09:03:17;;;;;;;32.67;5.63;;;6.10;99.90;;;;;;5036920;28;20056;-64
2022/01/30 09:05:43;;;;;;;30.02;6.20;;;6.00;99.90;;;;;;5036978;28;20052;-65
2022/01/30 09:08:08;;;;;;;29.60;5.28;;;6.00;99.90;;;;;;5036965;28;20463;-65
2022/01/30 09:10:38;;;;;;;23.77;4.53;;;5.90;99.90;;;;;;5037087;28;20456;-64
2022/01/30 09:13:05;;;;;;;32.17;5.70;;;5.90;99.90;;;;;;5037118;28;20480;-64
2022/01/30 09:15:37;;;;;;;30.30;5.07;;;6.10;99.90;;;;;;5035613;28;20049;-66
2022/01/30 09:18:08;;;;;;;29.15;5.50;;;6.20;99.90;;;;;;5054116;28;20377;-64
2022/01/30 09:20:34;;;;;;;22.40;5.57;;;6.30;99.90;;;;;;5044278;28;20151;-65
2022/01/30 09:22:59;;;;;;;25.27;5.60;;;6.30;99.90;;;;;;5044216;28;20511;-66
2022/01/30 09:25:25;;;;;;;38.55;6.82;;;6.30;99.90;;;;;;5053173;28;20052;-65
2022/01/30 09:27:50;;;;;;;34.90;5.78;;;6.30;99.90;;;;;;5053022;28;20067;-65
2022/01/30 09:30:17;;;;;;;28.40;6.07;;;6.30;99.90;;;;;;5053316;28;20049;-64
2022/01/30 09:32:43;;;;;;;25.63;5.32;;;6.20;99.90;;;;;;5054528;28;20118;-65
2022/01/30 09:35:09;;;;;;;33.47;6.22;;;6.20;99.90;;;;;;5051511;28;20427;-66
2022/01/30 09:37:35;;;;;;;28.63;5.65;;;6.10;99.90;;;;;;5045572;28;20054;-67
2022/01/30 09:40:01;;;;;;;30.58;6.05;;;6.10;99.90;;;;;;5033426;28;20406;-65
2022/01/30 09:42:27;;;;;;;37.20;7.38;;;6.20;99.90;;;;;;5032736;28;20041;-64
2022/01/30 09:44:52;;;;;;;28.90;5.63;;;6.30;99.90;;;;;;5033766;28;20085;-66
2022/01/30 09:47:18;;;;;;;39.40;7.20;;;6.50;99.90;;;;;;5016426;28;20060;-66
2022/01/30 09:49:50;;;;;;;31.08;5.65;;;6.50;99.90;;;;;;5036442;28;20123;-64
2022/01/30 09:52:18;;;;;;;31.60;7.22;;;6.50;99.90;;;;;;5043627;28;20096;-65
2022/01/30 09:54:44;;;;;;;32.38;6.55;;;6.70;99.90;;;;;;5039226;28;20478;-65
2022/01/30 09:57:10;;;;;;;33.03;6.78;;;6.50;99.90;;;;;;5034218;28;20053;-67
2022/01/30 09:59:36;;;;;;;29.10;6.78;;;6.60;99.90;;;;;;5046421;28;20056;-65
2022/01/30 10:02:06;;;;;;;40.42;7.22;;;6.70;99.90;;;;;;5033122;28;20492;-65
2022/01/30 10:04:32;;;;;;;27.85;7.32;;;6.90;99.90;;;;;;5032900;28;20128;-66
2022/01/30 10:07:04;;;;;;;30.15;5.32;;;6.90;99.90;;;;;;5033249;28;20126;-66
2022/01/30 10:09:34;;;;;;;26.08;5.95;;;6.90;99.90;;;;;;5034606;28;20065;-66
2022/01/30 10:12:16;;;;;;;30.98;6.05;;;6.80;99.90;;;;;;5033599;28;20077;-67
2022/01/30 10:14:54;;;;;;;34.35;6.40;;;6.70;99.90;;;;;;5033604;28;20072;-65
2022/01/30 10:17:29;;;;;;;25.35;5.53;;;6.60;99.90;;;;;;5034543;28;20060;-66
2022/01/30 10:20:03;;;;;;;29.58;5.90;;;6.70;99.90;;;;;;5033742;28;20052;-66
2022/01/30 10:22:29;;;;;;;21.95;4.50;;;6.70;99.90;;;;;;5033344;28;20582;-66
2022/01/30 10:24:57;;;;;;;25.15;6.22;;;6.80;99.90;;;;;;5017650;28;20132;-66
2022/01/30 10:27:25;;;;;;;21.75;5.88;;;6.90;99.90;;;;;;5032843;28;20524;-68
2022/01/30 10:29:58;;;;;;;37.17;6.95;;;7.00;99.90;;;;;;5031907;28;20053;-66
2022/01/30 10:32:24;;;;;;;;;;;7.00;99.90;;;;;;5033857;28;20076;-66
2022/01/30 10:34:57;;;;;;;22.00;5.00;;;7.10;98.80;;;;;;5031909;28;19928;-65
2022/01/30 10:37:24;;;;;;;27.08;5.53;;;7.10;99.80;;;;;;5040648;28;20133;-66
2022/01/30 10:40:05;;;;;;;25.25;5.15;;;7.10;99.80;;;;;;5040090;28;20132;-67
2022/01/30 10:42:31;;;;;;;35.70;6.45;;;7.20;97.70;;;;;;5037988;28;20151;-65
2022/01/30 10:44:57;;;;;;;27.10;5.80;;;7.20;99.10;;;;;;5039781;28;20510;-66
2022/01/30 10:47:22;;;;;;;30.15;6.25;;;7.20;98.10;;;;;;5024824;28;20077;-66
2022/01/30 10:49:51;;;;;;;27.98;6.28;;;7.30;99.10;;;;;;5039646;28;20124;-65
2022/01/30 10:52:17;;;;;;;29.08;5.95;;;7.30;99.90;;;;;;5011388;28;20109;-67
2022/01/30 10:54:42;;;;;;;28.83;5.32;;;7.40;99.90;;;;;;5012364;28;20089;-66
2022/01/30 10:57:10;;;;;;;34.80;6.63;;;7.60;99.90;;;;;;5040246;28;20053;-66
2022/01/30 10:59:42;;;;;;;26.45;6.43;;;7.70;99.90;;;;;;5039375;28;20040;-67
2022/01/30 11:02:16;;;;;;;30.40;6.90;;;7.70;99.90;;;;;;5032504;28;20045;-66
2022/01/30 11:04:42;;;;;;;34.17;6.28;;;7.70;99.90;;;;;;5039056;28;20057;-65
2022/01/30 11:07:08;;;;;;;29.30;5.93;;;7.70;99.90;;;;;;5040333;28;20128;-64
2022/01/30 11:09:42;;;;;;;26.17;5.47;;;7.60;99.90;;;;;;5043895;28;20049;-65
2022/01/30 11:12:12;;;;;;;35.10;6.43;;;7.60;99.90;;;;;;5019138;28;20108;-66
2022/01/30 11:14:51;;;;;;;33.95;7.05;;;7.50;99.90;;;;;;5011573;28;20504;-66
2022/01/30 11:17:22;;;;;;;34.08;7.20;;;7.50;99.90;;;;;;5025644;28;20381;-66
2022/01/30 11:19:52;;;;;;;29.58;5.20;;;7.40;99.90;;;;;;5037954;28;20084;-67
2022/01/30 11:22:21;;;;;;;14.85;3.35;;;7.40;99.90;;;;;;5043774;28;20107;-65
2022/01/30 11:25:01;;;;;;;22.50;6.85;;;7.30;98.60;;;;;;5032148;28;20082;-67
2022/01/30 11:27:26;;;;;;;29.00;6.70;;;7.30;99.90;;;;;;5031396;28;20397;-67
2022/01/30 11:29:52;;;;;;;35.17;5.90;;;7.30;99.90;;;;;;5031946;28;20064;-66
2022/01/30 11:32:21;;;;;;;30.67;5.85;;;7.30;99.90;;;;;;5024429;28;20084;-67
2022/01/30 11:34:47;;;;;;;29.55;6.13;;;7.30;99.90;;;;;;5025250;28;20482;-65
2022/01/30 11:37:17;;;;;;;30.33;5.35;;;7.30;99.90;;;;;;5025858;28;20470;-66
2022/01/30 11:39:48;;;;;;;24.42;6.55;;;7.40;98.60;;;;;;5032470;28;20102;-64
2022/01/30 11:42:26;;;;;;;32.37;6.40;;;7.40;97.40;;;;;;5046062;28;20049;-66
2022/01/30 11:45:03;;;;;;;31.92;4.70;;;7.50;95.40;;;;;;5054113;28;21157;-66
2022/01/30 11:47:49;;;;;;;33.47;5.60;;;7.50;97.70;;;;;;5027127;28;20060;-65
2022/01/30 11:50:20;;;;;;;25.63;5.72;;;7.60;93.80;;;;;;5030228;28;20059;-66
2022/01/30 11:52:58;;;;;;;24.67;5.00;;;7.60;94.20;;;;;;5032433;28;20064;-66
2022/01/30 11:55:42;;;;;;;26.33;5.22;;;7.60;88.60;;;;;;5039382;28;20439;-66
2022/01/30 11:58:32;;;;;;;24.73;4.63;;;7.60;92.30;;;;;;5033277;28;20056;-66
2022/01/30 12:01:00;;;;;;;25.30;5.47;;;7.50;91.00;;;;;;5033782;28;20481;-66
2022/01/30 12:03:35;;;;;;;28.60;5.45;;;7.40;91.80;;;;;;5034297;28;20052;-66
2022/01/30 12:06:29;;;;;;;26.75;6.57;;;7.20;92.90;;;;;;5034780;28;20049;-66
2022/01/30 12:08:56;;;;;;;21.13;4.95;;;7.10;93.00;;;;;;5035888;28;20063;-65
2022/01/30 12:11:34;;;;;;;20.40;4.70;;;7.00;95.20;;;;;;5034016;28;20050;-65
2022/01/30 12:14:24;;;;;;;20.55;4.72;;;7.10;91.60;;;;;;5048137;28;20140;-65
2022/01/30 12:16:58;;;;;;;18.52;4.97;;;7.10;93.00;;;;;;5028970;28;20063;-67
2022/01/30 12:19:53;;;;;;;26.27;5.57;;;7.20;94.40;;;;;;5055762;28;20520;-64
2022/01/30 12:22:19;;;;;;;22.48;4.68;;;7.30;94.20;;;;;;5037862;28;20057;-65
2022/01/30 12:24:49;;;;;;;22.90;5.35;;;7.30;93.00;;;;;;5057565;28;20057;-66
2022/01/30 12:27:15;;;;;;;21.45;5.00;;;7.30;92.60;;;;;;5055452;28;20053;-65
2022/01/30 12:29:46;;;;;;;25.70;5.43;;;7.40;93.10;;;;;;5046846;28;20053;-66
2022/01/30 12:32:22;;;;;;;25.00;4.90;;;7.40;93.90;;;;;;5044850;28;20127;-65
2022/01/30 12:34:55;;;;;;;27.30;5.03;;;7.60;90.20;;;;;;5044848;28;20083;-67
2022/01/30 12:37:25;;;;;;;27.15;5.60;;;7.70;91.90;;;;;;5055546;28;20131;-66
2022/01/30 12:39:52;;;;;;;22.52;4.65;;;7.80;91.80;;;;;;5055651;28;20056;-65
2022/01/30 12:42:19;;;;;;;22.50;4.82;;;7.80;91.10;;;;;;5047602;28;20052;-67
2022/01/30 12:44:45;;;;;;;17.80;4.35;;;7.80;91.90;;;;;;5063033;28;20075;-67
2022/01/30 12:47:12;;;;;;;21.88;4.40;;;7.70;91.00;;;;;;5047998;28;20117;-65
2022/01/30 12:49:47;;;;;;;23.23;5.30;;;7.70;90.70;;;;;;5037942;28;20064;-67
2022/01/30 12:52:22;;;;;;;20.15;4.70;;;7.60;90.80;;;;;;5051147;28;20048;-68
2022/01/30 12:54:50;;;;;;;25.17;4.78;;;7.70;91.60;;;;;;5047772;28;20080;-65
2022/01/30 12:57:19;;;;;;;28.45;5.38;;;7.70;90.50;;;;;;5035479;28;20041;-66
2022/01/30 12:59:57;;;;;;;22.40;4.97;;;7.60;91.10;;;;;;5036476;28;20049;-66
2022/01/30 13:02:26;;;;;;;24.20;5.55;;;7.60;91.70;;;;;;5047727;28;20053;-66
2022/01/30 13:05:02;;;;;;;33.30;4.88;;;7.60;92.30;;;;;;5046511;28;20045;-66
2022/01/30 13:07:28;;;;;;;24.98;5.70;;;7.50;92.40;;;;;;5028242;28;20045;-65
2022/01/30 13:10:12;;;;;;;24.02;4.82;;;7.50;94.00;;;;;;5064997;28;20071;-67
2022/01/30 13:12:38;;;;;;;27.17;4.85;;;7.40;93.90;;;;;;5036189;28;20049;-68
2022/01/30 13:15:07;;;;;;;21.20;5.57;;;7.40;93.60;;;;;;5019072;28;20417;-66
2022/01/30 13:17:32;;;;;;;26.75;5.45;;;7.40;93.50;;;;;;5036116;28;20498;-66
2022/01/30 13:19:58;;;;;;;20.23;4.35;;;7.50;94.30;;;;;;5047756;28;20056;-67
2022/01/30 13:22:36;;;;;;;24.27;4.68;;;7.50;94.30;;;;;;5045968;28;20084;-66
2022/01/30 13:25:11;;;;;;;21.98;5.15;;;7.60;94.50;;;;;;5039831;28;20081;-68
2022/01/30 13:27:45;;;;;;;18.70;5.00;;;7.60;94.70;;;;;;5033817;28;20057;-65
2022/01/30 13:30:17;;;;;;;23.52;4.63;;;7.70;94.60;;;;;;5033431;28;20049;-67
2022/01/30 13:32:43;;;;;;;29.33;5.35;;;7.50;94.10;;;;;;5034600;28;20053;-65
2022/01/30 13:35:13;;;;;;;21.13;5.93;;;7.50;95.70;;;;;;5038650;28;20119;-67
2022/01/30 13:37:41;;;;;;;15.95;4.03;;;7.40;94.70;;;;;;5033124;28;20053;-65